createdAt,value
2023-03-17T00:01:59.315Z,0.93
2023-03-17T00:04:28.430Z,1.00
2023-03-17T00:06:57.811Z,0.65
2023-03-17T00:09:26.388Z,0.70
2023-03-17T00:11:55.191Z,0.95
2023-03-17T00:14:23.665Z,0.77
2023-03-17T00:16:53.670Z,0.70
2023-03-17T00:19:30.920Z,0.80
2023-03-17T00:21:59.983Z,0.70
2023-03-17T00:24:28.946Z,0.93
2023-03-17T00:26:57.372Z,0.90
2023-03-17T00:29:26.876Z,0.73
2023-03-17T00:31:57.876Z,0.80
2023-03-17T00:34:28.238Z,0.80
2023-03-17T00:36:56.969Z,1.00
2023-03-17T00:39:27.058Z,0.98
2023-03-17T00:41:56.750Z,1.05
2023-03-17T00:44:25.468Z,0.82
2023-03-17T00:46:55.315Z,0.88
2023-03-17T00:49:25.029Z,0.82
2023-03-17T00:51:55.084Z,0.93
2023-03-17T00:54:23.543Z,0.90
2023-03-17T00:56:53.108Z,0.60
2023-03-17T00:59:28.663Z,1.00
2023-03-17T01:01:57.603Z,0.63
2023-03-17T01:04:26.164Z,0.80
2023-03-17T01:06:56.072Z,0.70
2023-03-17T01:09:26.971Z,0.73
2023-03-17T01:11:55.991Z,0.90
2023-03-17T01:14:25.735Z,0.73
2023-03-17T01:16:55.143Z,0.85
2023-03-17T01:19:24.210Z,0.90
2023-03-17T01:21:52.865Z,0.90
2023-03-17T01:24:22.705Z,0.90
2023-03-17T01:26:51.132Z,0.80
2023-03-17T01:29:19.582Z,1.02
2023-03-17T01:31:48.083Z,0.80
2023-03-17T01:34:16.707Z,0.90
2023-03-17T01:36:45.098Z,1.00
2023-03-17T01:39:14.346Z,0.90
2023-03-17T01:41:45.575Z,0.75
2023-03-17T01:44:17.090Z,0.90
2023-03-17T01:46:45.798Z,1.08
2023-03-17T01:49:22.222Z,0.80
2023-03-17T01:52:00.895Z,0.85
2023-03-17T01:54:35.717Z,0.82
2023-03-17T01:57:11.587Z,0.90
2023-03-17T01:59:45.360Z,0.82
2023-03-17T02:02:19.567Z,0.90
2023-03-17T02:07:16.299Z,0.90
2023-03-17T02:09:44.736Z,0.98
2023-03-17T02:12:15.273Z,0.80
2023-03-17T02:14:44.118Z,1.10
2023-03-17T02:17:14.718Z,0.90
2023-03-17T02:19:44.199Z,0.90
2023-03-17T02:22:14.066Z,0.70
2023-03-17T02:24:49.797Z,0.90
2023-03-17T02:27:21.174Z,0.80
2023-03-17T02:29:50.847Z,0.85
2023-03-17T02:32:20.377Z,0.70
2023-03-17T02:34:49.701Z,0.70
2023-03-17T02:37:21.411Z,0.82
2023-03-17T02:39:49.780Z,0.80
2023-03-17T02:42:18.128Z,0.88
2023-03-17T02:44:46.628Z,0.90
2023-03-17T02:47:15.680Z,0.95
2023-03-17T02:49:45.150Z,0.80
2023-03-17T02:52:13.627Z,1.05
2023-03-17T02:54:43.727Z,0.80
2023-03-17T02:57:12.247Z,0.90
2023-03-17T02:59:40.633Z,0.90
2023-03-17T03:02:09.281Z,0.93
2023-03-17T03:04:37.872Z,1.05
2023-03-17T03:07:06.512Z,0.90
2023-03-17T03:09:35.224Z,0.82
2023-03-17T03:12:06.413Z,1.00
2023-03-17T03:14:34.760Z,0.70
2023-03-17T03:17:04.344Z,0.70
2023-03-17T03:19:32.911Z,0.60
2023-03-17T03:22:01.309Z,0.95
2023-03-17T03:24:29.677Z,1.10
2023-03-17T03:26:58.073Z,0.70
2023-03-17T03:29:27.989Z,0.85
2023-03-17T03:31:56.398Z,0.80
2023-03-17T03:34:24.795Z,0.90
2023-03-17T03:36:53.434Z,0.80
2023-03-17T03:39:21.742Z,0.80
2023-03-17T03:41:50.135Z,0.82
2023-03-17T03:44:18.791Z,0.70
2023-03-17T03:46:48.573Z,1.45
2023-03-17T03:49:16.975Z,0.90
2023-03-17T03:51:45.724Z,0.80
2023-03-17T03:54:14.163Z,0.90
2023-03-17T03:56:42.590Z,0.93
2023-03-17T03:59:11.042Z,1.05
2023-03-17T04:01:40.062Z,0.70
2023-03-17T04:04:09.890Z,0.60
2023-03-17T04:06:38.338Z,0.90
2023-03-17T04:09:06.763Z,0.63
2023-03-17T04:11:35.261Z,0.77
2023-03-17T04:14:04.058Z,0.75
2023-03-17T04:16:33.007Z,0.90
2023-03-17T04:19:01.584Z,0.90
2023-03-17T04:21:31.372Z,0.70
2023-03-17T04:23:59.939Z,0.90
2023-03-17T04:26:28.278Z,0.77
2023-03-17T04:28:56.666Z,0.90
2023-03-17T04:31:25.779Z,0.80
2023-03-17T04:33:54.283Z,0.88
2023-03-17T04:36:25.078Z,0.80
2023-03-17T04:38:54.863Z,0.77
2023-03-17T04:41:23.312Z,0.90
2023-03-17T04:43:52.060Z,0.73
2023-03-17T04:46:20.509Z,0.85
2023-03-17T04:48:48.903Z,0.90
2023-03-17T04:51:17.646Z,0.70
2023-03-17T04:53:46.163Z,0.70
2023-03-17T04:56:16.624Z,0.80
2023-03-17T04:58:45.577Z,1.00
2023-03-17T05:01:14.325Z,1.10
2023-03-17T05:03:43.148Z,1.00
2023-03-17T05:06:11.958Z,1.00
2023-03-17T05:08:40.615Z,0.82
2023-03-17T05:11:10.131Z,0.80
2023-03-17T05:13:41.745Z,0.90
2023-03-17T05:16:10.634Z,1.02
2023-03-17T05:18:39.521Z,0.90
2023-03-17T05:21:08.595Z,0.90
2023-03-17T05:23:38.120Z,0.80
2023-03-17T05:26:06.850Z,1.00
2023-03-17T05:28:35.413Z,0.80
2023-03-17T05:31:05.381Z,1.00
2023-03-17T05:33:34.118Z,1.13
2023-03-17T05:36:03.514Z,1.00
2023-03-17T05:38:31.958Z,0.68
2023-03-17T05:41:00.397Z,0.70
2023-03-17T05:43:28.788Z,0.90
2023-03-17T05:45:57.311Z,0.70
2023-03-17T05:48:27.562Z,1.13
2023-03-17T05:50:55.998Z,0.82
2023-03-17T05:53:24.478Z,0.80
2023-03-17T05:55:53.182Z,0.80
2023-03-17T05:58:22.096Z,1.00
2023-03-17T06:00:51.089Z,0.73
2023-03-17T06:03:19.653Z,0.82
2023-03-17T06:05:49.434Z,0.90
2023-03-17T06:08:18.140Z,0.70
2023-03-17T06:10:46.520Z,0.80
2023-03-17T06:13:15.420Z,0.90
2023-03-17T06:15:44.060Z,0.75
2023-03-17T06:18:12.540Z,0.80
2023-03-17T06:20:41.571Z,0.80
2023-03-17T06:23:11.405Z,0.63
2023-03-17T06:25:39.916Z,0.93
2023-03-17T06:28:08.358Z,0.88
2023-03-17T06:30:43.137Z,0.80
2023-03-17T06:33:11.744Z,0.85
2023-03-17T06:35:40.459Z,0.80
2023-03-17T06:38:08.900Z,0.80
2023-03-17T06:40:38.612Z,1.10
2023-03-17T06:43:07.552Z,0.80
2023-03-17T06:45:36.143Z,0.80
2023-03-17T06:48:04.926Z,0.88
2023-03-17T06:50:33.336Z,0.90
2023-03-17T06:53:01.872Z,0.90
2023-03-17T06:55:30.658Z,0.80
2023-03-17T06:58:01.910Z,0.90
2023-03-17T07:00:30.719Z,0.90
2023-03-17T07:02:59.430Z,0.85
2023-03-17T07:05:28.099Z,1.00
2023-03-17T07:07:56.609Z,0.88
2023-03-17T07:10:25.446Z,0.90
2023-03-17T07:12:53.922Z,0.80
2023-03-17T07:15:24.065Z,0.80
2023-03-17T07:17:52.619Z,0.90
2023-03-17T07:20:21.582Z,0.85
2023-03-17T07:22:50.097Z,0.90
2023-03-17T07:25:18.566Z,0.93
2023-03-17T07:27:47.000Z,0.85
2023-03-17T07:30:18.927Z,1.10
2023-03-17T07:32:50.214Z,0.90
2023-03-17T07:35:19.198Z,0.80
2023-03-17T07:37:48.173Z,0.77
2023-03-17T07:40:18.476Z,0.85
2023-03-17T07:42:46.925Z,0.90
2023-03-17T07:45:15.496Z,0.80
2023-03-17T07:47:44.019Z,0.80
2023-03-17T07:50:14.219Z,0.73
2023-03-17T07:52:42.783Z,0.70
2023-03-17T07:55:12.424Z,0.80
2023-03-17T07:57:41.318Z,0.60
2023-03-17T08:00:13.543Z,0.75
2023-03-17T08:02:42.562Z,1.10
2023-03-17T08:05:14.194Z,0.70
2023-03-17T08:07:42.694Z,0.73
2023-03-17T08:10:13.245Z,0.60
2023-03-17T08:12:42.656Z,0.60
2023-03-17T08:15:12.171Z,0.68
2023-03-17T08:17:41.817Z,0.70
2023-03-17T08:20:11.862Z,0.77
2023-03-17T08:22:41.726Z,0.80
2023-03-17T08:25:11.467Z,0.70
2023-03-17T08:27:39.978Z,0.80
2023-03-17T08:30:09.620Z,0.60
2023-03-17T08:32:38.137Z,1.08
2023-03-17T08:35:07.442Z,1.15
2023-03-17T08:37:35.959Z,1.13
2023-03-17T08:40:07.845Z,0.90
2023-03-17T08:42:37.545Z,1.17
2023-03-17T08:45:07.752Z,0.80
2023-03-17T08:47:36.365Z,1.08
2023-03-17T08:50:07.418Z,0.82
2023-03-17T08:52:36.703Z,0.90
2023-03-17T08:55:08.870Z,1.17
2023-03-17T08:57:37.958Z,0.82
2023-03-17T09:00:11.047Z,0.80
2023-03-17T09:02:40.696Z,1.00
2023-03-17T09:05:10.945Z,1.00
2023-03-17T09:07:39.382Z,1.27
2023-03-17T09:10:11.043Z,0.85
2023-03-17T09:12:39.745Z,1.10
2023-03-17T09:15:09.239Z,1.08
2023-03-17T09:17:38.256Z,1.13
2023-03-17T09:20:07.824Z,0.90
2023-03-17T09:22:36.760Z,0.88
2023-03-17T09:25:05.573Z,0.85
2023-03-17T09:27:36.341Z,0.93
2023-03-17T09:30:05.184Z,0.90
2023-03-17T09:32:33.659Z,1.10
2023-03-17T09:35:02.031Z,0.95
2023-03-17T09:37:31.087Z,0.82
2023-03-17T09:39:59.531Z,0.90
2023-03-17T09:42:43.305Z,0.98
2023-03-17T09:45:25.608Z,0.80
2023-03-17T09:48:23.490Z,1.00
2023-03-17T09:50:57.518Z,0.98
2023-03-17T09:53:34.012Z,0.90
2023-03-17T09:56:08.714Z,1.00
2023-03-17T09:58:41.697Z,1.17
2023-03-17T10:01:12.732Z,0.80
2023-03-17T10:03:41.199Z,0.90
2023-03-17T10:06:21.714Z,0.90
2023-03-17T10:08:57.423Z,1.00
2023-03-17T10:11:38.455Z,0.73
2023-03-17T10:14:24.153Z,0.70
2023-03-17T10:16:59.051Z,0.80
2023-03-17T10:19:32.037Z,0.88
2023-03-17T10:22:05.112Z,1.00
2023-03-17T10:24:35.478Z,0.90
2023-03-17T10:27:06.724Z,1.00
2023-03-17T10:29:37.002Z,1.05
2023-03-17T10:32:05.887Z,0.98
2023-03-17T10:34:38.010Z,0.90
2023-03-17T10:37:08.678Z,1.00
2023-03-17T10:39:45.632Z,0.80
2023-03-17T10:42:22.395Z,0.85
2023-03-17T10:44:56.130Z,1.10
2023-03-17T10:47:31.489Z,0.98
2023-03-17T10:50:03.760Z,0.75
2023-03-17T10:52:36.910Z,0.90
2023-03-17T10:55:07.142Z,0.70
2023-03-17T10:57:38.935Z,0.70
2023-03-17T11:00:19.849Z,0.90
2023-03-17T11:02:57.272Z,0.98
2023-03-17T11:05:28.998Z,0.85
2023-03-17T11:08:10.446Z,0.90
2023-03-17T11:10:41.609Z,0.98
2023-03-17T11:13:10.288Z,0.90
2023-03-17T11:15:43.987Z,0.80
2023-03-17T11:18:17.970Z,0.90
2023-03-17T11:20:54.717Z,0.85
2023-03-17T11:23:49.279Z,0.98
2023-03-17T11:26:33.040Z,0.77
2023-03-17T11:29:20.706Z,0.90
2023-03-17T11:31:59.570Z,0.80
2023-03-17T11:34:37.550Z,0.90
2023-03-17T11:37:19.797Z,0.80
2023-03-17T11:39:56.286Z,0.85
2023-03-17T11:42:28.582Z,0.93
2023-03-17T11:45:16.832Z,0.75
2023-03-17T11:48:07.438Z,1.00
2023-03-17T11:50:41.955Z,0.80
2023-03-17T11:53:32.061Z,0.93
2023-03-17T11:56:04.202Z,0.70
2023-03-17T11:58:37.612Z,0.68
2023-03-17T12:01:09.124Z,0.80
2023-03-17T12:03:43.596Z,0.80
2023-03-17T12:06:17.908Z,1.10
2023-03-17T12:08:53.101Z,0.82
2023-03-17T12:11:28.077Z,0.75
2023-03-17T12:14:00.876Z,0.88
2023-03-17T12:16:35.348Z,0.80
2023-03-17T12:19:14.572Z,0.90
2023-03-17T12:21:50.120Z,0.90
2023-03-17T12:24:21.283Z,1.05
2023-03-17T12:26:57.514Z,1.10
2023-03-17T12:29:40.827Z,0.93
2023-03-17T12:32:17.332Z,0.90
2023-03-17T12:34:52.789Z,1.00
2023-03-17T12:37:22.624Z,0.90
2023-03-17T12:40:00.686Z,1.00
2023-03-17T12:42:47.004Z,1.10
2023-03-17T12:45:30.926Z,1.10
2023-03-17T12:48:27.938Z,1.08
2023-03-17T12:51:27.362Z,1.58
2023-03-17T12:53:56.535Z,1.60
2023-03-17T12:56:29.099Z,1.60
2023-03-17T12:59:02.970Z,1.42
2023-03-17T13:01:33.940Z,1.25
2023-03-17T13:04:08.232Z,1.30
2023-03-17T13:06:44.983Z,1.63
2023-03-17T13:09:45.392Z,1.50
2023-03-17T13:12:36.731Z,1.40
2023-03-17T13:15:24.504Z,1.50
2023-03-17T13:18:14.573Z,1.40
2023-03-17T13:20:44.792Z,1.42
2023-03-17T13:23:16.952Z,1.20
2023-03-17T13:25:53.396Z,1.30
2023-03-17T13:28:27.345Z,1.30
2023-03-17T13:31:08.692Z,1.50
2023-03-17T13:33:43.085Z,1.70
2023-03-17T13:36:36.402Z,1.50
2023-03-17T13:39:24.786Z,1.30
2023-03-17T13:42:17.753Z,1.70
2023-03-17T13:45:11.335Z,1.23
2023-03-17T13:47:42.218Z,2.03
2023-03-17T13:50:15.788Z,1.55
2023-03-17T13:52:49.517Z,1.55
2023-03-17T13:55:39.423Z,1.38
2023-03-17T13:58:35.669Z,1.42
2023-03-17T14:01:09.041Z,1.30
2023-03-17T14:03:43.665Z,1.30
2023-03-17T14:06:13.676Z,1.40
2023-03-17T14:08:47.656Z,1.40
2023-03-17T14:14:29.598Z,1.50
2023-03-17T14:17:08.125Z,1.52
2023-03-17T14:19:41.333Z,1.30
2023-03-17T14:22:23.874Z,1.45
2023-03-17T14:24:53.866Z,1.48
2023-03-17T14:27:25.407Z,1.38
2023-03-17T14:29:54.032Z,1.50
2023-03-17T14:32:25.323Z,1.45
2023-03-17T14:34:59.840Z,1.38
2023-03-17T14:37:29.054Z,1.48
2023-03-17T14:39:59.038Z,1.40
2023-03-17T14:42:31.144Z,1.70
2023-03-17T14:45:04.899Z,1.42
2023-03-17T14:47:39.739Z,1.40
2023-03-17T14:50:18.157Z,1.50
2023-03-17T14:52:46.764Z,1.55
2023-03-17T14:55:16.946Z,1.30
2023-03-17T14:57:50.924Z,1.27
2023-03-17T15:00:34.846Z,1.25
2023-03-17T15:03:05.211Z,1.38
2023-03-17T15:05:42.194Z,1.27
2023-03-17T15:08:31.170Z,1.10
2023-03-17T15:11:00.699Z,1.20
2023-03-17T15:13:34.883Z,1.10
2023-03-17T15:16:07.295Z,1.40
2023-03-17T15:18:36.038Z,1.33
2023-03-17T15:21:04.437Z,1.40
2023-03-17T15:23:41.347Z,1.25
2023-03-17T15:26:22.761Z,1.40
2023-03-17T15:28:52.597Z,1.30
2023-03-17T15:31:26.503Z,1.20
2023-03-17T15:33:57.327Z,1.10
2023-03-17T15:36:32.803Z,1.20
2023-03-17T15:39:02.054Z,1.52
2023-03-17T15:41:30.504Z,1.20
2023-03-17T15:44:00.242Z,1.40
2023-03-17T15:46:32.147Z,1.20
2023-03-17T15:49:00.859Z,1.23
2023-03-17T15:51:29.231Z,1.30
2023-03-17T15:53:57.636Z,1.30
2023-03-17T15:56:26.205Z,1.33
2023-03-17T15:58:54.582Z,1.30
2023-03-17T16:01:27.656Z,1.00
2023-03-17T16:03:56.504Z,1.02
2023-03-17T16:06:25.538Z,1.00
2023-03-17T16:08:54.144Z,1.23
2023-03-17T16:11:28.015Z,1.20
2023-03-17T16:16:31.601Z,0.90
2023-03-17T16:19:00.210Z,1.20
2023-03-17T16:21:30.649Z,1.10
2023-03-17T16:23:59.877Z,1.00
2023-03-17T16:26:28.338Z,1.00
2023-03-17T16:28:57.620Z,1.05
2023-03-17T16:31:30.736Z,1.20
2023-03-17T16:33:59.729Z,1.25
2023-03-17T16:36:28.393Z,1.20
2023-03-17T16:38:57.118Z,1.02
2023-03-17T16:41:27.411Z,1.10
2023-03-17T16:44:00.292Z,1.00
2023-03-17T16:46:35.157Z,1.20
2023-03-17T16:49:04.883Z,1.13
2023-03-17T16:51:33.386Z,1.00
2023-03-17T16:54:01.803Z,1.08
2023-03-17T16:56:31.415Z,1.33
2023-03-17T16:59:00.026Z,1.02
2023-03-17T17:01:31.174Z,1.00
2023-03-17T17:03:59.626Z,1.10
2023-03-17T17:06:28.154Z,1.13
2023-03-17T17:08:56.594Z,1.10
2023-03-17T17:11:25.045Z,1.02
2023-03-17T17:13:53.536Z,1.20
2023-03-17T17:16:26.944Z,1.15
2023-03-17T17:18:57.967Z,1.10
2023-03-17T17:21:27.184Z,1.20
2023-03-17T17:23:56.050Z,1.00
2023-03-17T17:26:24.731Z,1.20
2023-03-17T17:28:53.308Z,1.00
2023-03-17T17:31:21.850Z,1.27
2023-03-17T17:33:50.339Z,1.23
2023-03-17T17:36:20.279Z,1.35
2023-03-17T17:38:48.720Z,0.80
2023-03-17T17:41:21.257Z,1.10
2023-03-17T17:43:50.025Z,1.30
2023-03-17T17:46:20.716Z,1.40
2023-03-17T17:48:49.207Z,1.27
2023-03-17T17:51:17.962Z,1.10
2023-03-17T17:53:47.730Z,1.27
2023-03-17T17:56:17.712Z,1.23
2023-03-17T17:58:47.027Z,1.10
2023-03-17T18:01:19.610Z,1.25
2023-03-17T18:03:48.233Z,1.10
2023-03-17T18:06:17.820Z,1.05
2023-03-17T18:08:47.998Z,1.10
2023-03-17T18:11:16.511Z,1.10
2023-03-17T18:13:45.201Z,1.20
2023-03-17T18:16:17.338Z,1.20
2023-03-17T18:18:47.118Z,1.00
2023-03-17T18:21:16.111Z,1.02
2023-03-17T18:23:47.142Z,1.30
2023-03-17T18:26:18.417Z,1.25
2023-03-17T18:28:47.701Z,1.10
2023-03-17T18:31:19.846Z,1.20
2023-03-17T18:33:51.751Z,1.50
2023-03-17T18:36:21.609Z,1.13
2023-03-17T18:38:50.002Z,1.10
2023-03-17T18:41:19.929Z,1.30
2023-03-17T18:43:48.342Z,1.42
2023-03-17T18:46:17.292Z,1.38
2023-03-17T18:48:45.845Z,1.33
2023-03-17T18:51:14.240Z,1.50
2023-03-17T18:53:42.686Z,1.38
2023-03-17T18:56:11.553Z,1.20
2023-03-17T18:58:41.636Z,1.40
2023-03-17T19:01:10.520Z,1.67
2023-03-17T19:03:39.265Z,1.73
2023-03-17T19:06:13.169Z,1.50
2023-03-17T19:08:41.990Z,1.90
2023-03-17T19:11:13.512Z,1.80
2023-03-17T19:13:45.091Z,1.80
2023-03-17T19:16:14.065Z,1.90
2023-03-17T19:18:42.734Z,1.63
2023-03-17T19:21:13.064Z,1.90
2023-03-17T19:23:41.775Z,1.95
2023-03-17T19:26:10.492Z,1.70
2023-03-17T19:28:39.106Z,1.63
2023-03-17T19:31:09.354Z,1.90
2023-03-17T19:33:38.263Z,1.80
2023-03-17T19:36:09.376Z,1.67
2023-03-17T19:38:38.454Z,1.80
2023-03-17T19:41:07.405Z,1.88
2023-03-17T19:43:40.671Z,1.65
2023-03-17T19:46:12.487Z,2.10
2023-03-17T19:48:41.993Z,1.95
2023-03-17T19:51:11.426Z,1.60
2023-03-17T19:53:39.868Z,1.85
2023-03-17T19:56:08.559Z,1.80
2023-03-17T19:58:37.066Z,2.13
2023-03-17T20:01:07.418Z,1.90
2023-03-17T20:03:42.216Z,1.92
2023-03-17T20:06:10.690Z,2.10
2023-03-17T20:08:40.640Z,2.03
2023-03-17T20:11:09.579Z,1.98
2023-03-17T20:13:38.372Z,2.10
2023-03-17T20:16:08.091Z,1.90
2023-03-17T20:18:37.882Z,1.88
2023-03-17T20:21:07.686Z,1.95
2023-03-17T20:23:37.700Z,1.88
2023-03-17T20:26:06.904Z,2.13
2023-03-17T20:28:35.718Z,1.70
2023-03-17T20:31:05.337Z,1.65
2023-03-17T20:33:34.501Z,2.45
2023-03-17T20:36:04.997Z,1.90
2023-03-17T20:38:36.851Z,1.95
2023-03-17T20:41:07.370Z,1.85
2023-03-17T20:43:37.423Z,1.70
2023-03-17T20:46:08.481Z,1.83
2023-03-17T20:48:37.677Z,1.88
2023-03-17T20:51:10.014Z,1.77
2023-03-17T20:53:38.805Z,2.33
2023-03-17T20:56:08.474Z,2.05
2023-03-17T20:58:36.905Z,1.70
2023-03-17T21:01:05.691Z,1.90
2023-03-17T21:03:34.096Z,2.05
2023-03-17T21:06:02.540Z,1.92
2023-03-17T21:08:33.782Z,1.80
2023-03-17T21:11:02.799Z,2.05
2023-03-17T21:13:32.952Z,1.98
2023-03-17T21:16:02.367Z,1.73
2023-03-17T21:18:31.690Z,2.00
2023-03-17T21:21:00.330Z,1.88
2023-03-17T21:23:28.817Z,1.98
2023-03-17T21:25:58.593Z,1.85
2023-03-17T21:28:27.258Z,1.80
2023-03-17T21:30:55.684Z,1.80
2023-03-17T21:33:24.576Z,1.65
2023-03-17T21:35:53.173Z,1.88
2023-03-17T21:38:22.060Z,1.67
2023-03-17T21:40:51.598Z,2.20
2023-03-17T21:43:21.620Z,2.00
2023-03-17T21:45:50.448Z,1.70
2023-03-17T21:48:18.895Z,1.80
2023-03-17T21:50:49.060Z,2.00
2023-03-17T21:53:17.544Z,2.10
2023-03-17T21:55:46.158Z,1.85
2023-03-17T21:58:14.631Z,2.05
2023-03-17T22:00:45.806Z,2.05
2023-03-17T22:03:14.645Z,1.58
2023-03-17T22:05:43.972Z,2.17
2023-03-17T22:08:12.338Z,1.90
2023-03-17T22:10:40.837Z,2.08
2023-03-17T22:13:09.619Z,1.83
2023-03-17T22:15:38.091Z,1.75
2023-03-17T22:18:07.899Z,1.60
2023-03-17T22:20:36.335Z,1.80
2023-03-17T22:23:04.917Z,1.90
2023-03-17T22:25:33.451Z,1.92
2023-03-17T22:28:03.004Z,1.80
2023-03-17T22:30:31.724Z,1.90
2023-03-17T22:33:00.752Z,2.10
2023-03-17T22:35:31.118Z,1.63
2023-03-17T22:37:59.580Z,2.00
2023-03-17T22:40:28.122Z,2.00
2023-03-17T22:42:57.382Z,1.85
2023-03-17T22:45:26.900Z,1.77
2023-03-17T22:47:56.383Z,1.90
2023-03-17T22:50:25.244Z,1.70
2023-03-17T22:52:55.022Z,1.83
2023-03-17T22:55:23.558Z,1.50
2023-03-17T22:57:51.971Z,1.63
2023-03-17T23:00:20.589Z,1.70
2023-03-17T23:02:49.076Z,1.63
2023-03-17T23:05:17.661Z,1.92
2023-03-17T23:07:53.051Z,1.80
2023-03-17T23:10:24.649Z,2.08
2023-03-17T23:12:53.777Z,1.75
2023-03-17T23:15:22.823Z,1.98
2023-03-17T23:17:51.938Z,1.92
2023-03-17T23:20:20.549Z,1.55
2023-03-17T23:22:49.109Z,1.88
2023-03-17T23:25:18.069Z,1.70
2023-03-17T23:27:48.202Z,1.65
2023-03-17T23:30:17.839Z,1.75
2023-03-17T23:32:46.758Z,1.70
2023-03-17T23:35:15.481Z,1.65
2023-03-17T23:37:43.983Z,1.73
2023-03-17T23:40:15.510Z,1.90
2023-03-17T23:42:44.471Z,1.40
2023-03-17T23:45:15.206Z,1.73
2023-03-17T23:47:44.333Z,1.90
2023-03-17T23:50:14.360Z,1.60
2023-03-17T23:52:43.455Z,1.75
2023-03-17T23:55:13.040Z,1.67
2023-03-17T23:57:41.537Z,1.58
